Time;durP1;ratioP1;P1;durP2;ratioP2;P2;SDS_P1;SDS_P2;PMS_P1;PMS_P2;Temp;Humidity;BMP_temperature;BMP_pressure;BME280_temperature;BME280_humidity;BME280_pressure;Samples;Min_cycle;Max_cycle;Signal;HPM_P1;HPM_P2
2022/02/24 00:00:20;;;;;;;9.00;4.03;;;;;;;;;;2054751;28;20174;-64
2022/02/24 00:01:20;;;;;;;6.38;3.55;;;;;;;;;;2056469;28;20564;-63
2022/02/24 00:02:21;;;;;;;8.00;3.20;;;;;;;;;;2056954;28;20191;-63
2022/02/24 00:03:23;;;;;;;4.50;3.25;;;;;;;;;;2057051;28;20177;-64
2022/02/24 00:04:23;;;;;;;5.25;3.75;;;;;;;;;;2056464;28;20155;-64
2022/02/24 00:05:24;;;;;;;5.45;3.75;;;;;;;;;;2057170;28;20177;-64
2022/02/24 00:06:24;;;;;;;4.47;3.80;;;;;;;;;;2059510;28;20170;-65
2022/02/24 00:07:25;;;;;;;4.15;3.40;;;;;;;;;;2051717;28;20540;-64
2022/02/24 00:08:25;;;;;;;3.45;3.10;;;;;;;;;;2049177;28;20194;-63
2022/02/24 00:09:25;;;;;;;7.00;4.03;;;;;;;;;;2050927;28;20321;-63
2022/02/24 00:10:26;;;;;;;6.63;4.03;;;;;;;;;;2054476;28;20246;-64
2022/02/24 00:11:26;;;;;;;7.53;3.40;;;;;;;;;;2050145;28;20179;-63
2022/02/24 00:12:26;;;;;;;7.00;4.07;;;;;;;;;;2055825;28;20286;-64
2022/02/24 00:13:26;;;;;;;7.13;3.97;;;;;;;;;;2056708;28;20166;-60
2022/02/24 00:14:27;;;;;;;8.45;3.67;;;;;;;;;;2055794;28;20225;-63
2022/02/24 00:15:27;;;;;;;4.55;3.40;;;;;;;;;;2056534;28;20511;-63
2022/02/24 00:16:27;;;;;;;5.93;3.63;;;;;;;;;;2056426;28;20208;-64
2022/02/24 00:17:27;;;;;;;9.90;4.03;;;;;;;;;;2056627;28;20762;-63
2022/02/24 00:18:27;;;;;;;8.00;4.30;;;;;;;;;;2056305;28;20170;-62
2022/02/24 00:19:28;;;;;;;8.02;5.07;;;;;;;;;;2056524;28;20654;-63
2022/02/24 00:20:28;;;;;;;8.25;3.97;;;;;;;;;;2056126;28;20178;-63
2022/02/24 00:21:28;;;;;;;6.82;3.78;;;;;;;;;;2048333;29;20272;-58
2022/02/24 00:22:29;;;;;;;5.45;3.85;;;;;;;;;;2054235;28;20941;-63
2022/02/24 00:23:29;;;;;;;5.20;3.58;;;;;;;;;;2054048;28;20174;-63
2022/02/24 00:24:29;;;;;;;6.90;3.78;;;;;;;;;;2056390;28;20178;-62
2022/02/24 00:25:29;;;;;;;6.45;3.65;;;;;;;;;;2056559;28;20177;-64
2022/02/24 00:26:29;;;;;;;7.10;3.88;;;;;;;;;;2056278;28;20174;-64
2022/02/24 00:27:30;;;;;;;7.10;4.28;;;;;;;;;;2057035;28;20229;-64
2022/02/24 00:28:34;;;;;;;4.75;3.90;;;;;;;;;;2057088;28;20158;-64
2022/02/24 00:29:34;;;;;;;7.38;4.10;;;;;;;;;;2056941;28;20178;-64
2022/02/24 00:30:34;;;;;;;7.85;3.85;;;;;;;;;;2057096;28;20194;-63
2022/02/24 00:31:34;;;;;;;7.05;3.80;;;;;;;;;;2056992;28;20171;-63
2022/02/24 00:32:35;;;;;;;6.53;3.55;;;;;;;;;;2056831;28;20198;-64
2022/02/24 00:33:38;;;;;;;8.60;4.50;;;;;;;;;;2057957;28;20166;-65
2022/02/24 00:34:39;;;;;;;5.03;3.70;;;;;;;;;;2056094;28;20531;-61
2022/02/24 00:35:39;;;;;;;9.07;5.25;;;;;;;;;;2057443;28;20177;-64
2022/02/24 00:36:39;;;;;;;7.72;5.10;;;;;;;;;;2050470;28;20179;-63
2022/02/24 00:37:41;;;;;;;9.60;5.15;;;;;;;;;;2058793;28;20666;-63
2022/02/24 00:38:41;;;;;;;5.45;4.63;;;;;;;;;;2058150;28;20174;-63
2022/02/24 00:39:43;;;;;;;6.82;4.70;;;;;;;;;;2058408;28;20186;-63
2022/02/24 00:40:43;;;;;;;6.88;4.28;;;;;;;;;;2060101;28;20643;-62
2022/02/24 00:41:44;;;;;;;8.43;4.15;;;;;;;;;;2051829;28;20183;-63
2022/02/24 00:42:44;;;;;;;7.82;4.20;;;;;;;;;;2058456;28;20206;-64
2022/02/24 00:43:44;;;;;;;8.52;4.20;;;;;;;;;;2058435;28;20269;-66
2022/02/24 00:44:44;;;;;;;8.52;4.03;;;;;;;;;;2058295;28;20186;-63
2022/02/24 00:45:45;;;;;;;5.50;3.75;;;;;;;;;;2058533;28;20178;-62
2022/02/24 00:46:45;;;;;;;6.13;3.97;;;;;;;;;;2058154;28;20174;-63
2022/02/24 00:47:45;;;;;;;5.82;4.20;;;;;;;;;;2058035;28;20212;-63
2022/02/24 00:48:45;;;;;;;7.63;4.57;;;;;;;;;;2058786;28;20174;-61
2022/02/24 00:49:46;;;;;;;6.30;4.20;;;;;;;;;;2058644;28;20204;-63
2022/02/24 00:50:46;;;;;;;12.10;4.13;;;;;;;;;;2058810;28;20669;-64
2022/02/24 00:51:46;;;;;;;6.75;3.72;;;;;;;;;;2058023;28;20545;-63
2022/02/24 00:52:46;;;;;;;6.45;4.07;;;;;;;;;;2057803;28;20690;-63
2022/02/24 00:53:46;;;;;;;6.95;3.72;;;;;;;;;;2058285;28;20183;-64
2022/02/24 00:54:48;;;;;;;4.85;3.78;;;;;;;;;;2057881;28;20257;-63
2022/02/24 00:55:49;;;;;;;10.73;4.60;;;;;;;;;;2057732;28;20170;-62
2022/02/24 00:56:49;;;;;;;7.43;4.28;;;;;;;;;;2058727;28;20178;-63
2022/02/24 00:57:50;;;;;;;5.72;3.97;;;;;;;;;;2058534;28;20166;-63
2022/02/24 00:58:51;;;;;;;7.60;3.83;;;;;;;;;;2058720;28;20185;-65
2022/02/24 00:59:51;;;;;;;6.03;4.18;;;;;;;;;;2049766;29;20175;-64
2022/02/24 01:00:55;;;;;;;7.53;4.18;;;;;;;;;;2050023;28;20186;-65
2022/02/24 01:01:55;;;;;;;7.28;4.47;;;;;;;;;;2058426;28;20206;-64
2022/02/24 01:02:56;;;;;;;8.20;4.40;;;;;;;;;;2058801;28;20167;-64
2022/02/24 01:03:56;;;;;;;6.43;4.80;;;;;;;;;;2058130;28;20201;-64
2022/02/24 01:04:56;;;;;;;4.80;3.90;;;;;;;;;;2058328;28;20715;-63
2022/02/24 01:05:56;;;;;;;7.45;4.00;;;;;;;;;;2058448;28;20255;-63
2022/02/24 01:06:56;;;;;;;7.82;4.75;;;;;;;;;;2058570;28;20709;-63
2022/02/24 01:07:57;;;;;;;12.52;4.63;;;;;;;;;;2058698;28;20186;-64
2022/02/24 01:08:57;;;;;;;9.40;4.55;;;;;;;;;;2058088;28;20177;-64
2022/02/24 01:09:57;;;;;;;6.65;4.18;;;;;;;;;;2057778;28;20659;-65
2022/02/24 01:10:57;;;;;;;7.75;4.30;;;;;;;;;;2058598;28;20314;-65
2022/02/24 01:11:58;;;;;;;5.75;4.55;;;;;;;;;;2058431;28;20220;-64
2022/02/24 01:12:58;;;;;;;5.53;3.92;;;;;;;;;;2058484;28;20201;-64
2022/02/24 01:13:58;;;;;;;5.03;3.97;;;;;;;;;;2057930;28;20250;-63
2022/02/24 01:15:03;;;;;;;9.65;4.75;;;;;;;;;;2058593;28;20221;-64
2022/02/24 01:16:04;;;;;;;5.20;4.13;;;;;;;;;;2057802;28;20587;-64
2022/02/24 01:17:04;;;;;;;11.00;4.43;;;;;;;;;;2057989;28;20190;-63
2022/02/24 01:18:05;;;;;;;6.03;4.03;;;;;;;;;;2058328;28;20523;-63
2022/02/24 01:19:05;;;;;;;6.95;4.47;;;;;;;;;;2058319;28;20221;-64
2022/02/24 01:20:06;;;;;;;6.75;4.40;;;;;;;;;;2058446;28;20578;-63
2022/02/24 01:21:06;;;;;;;10.25;4.38;;;;;;;;;;2058381;28;20202;-65
2022/02/24 01:22:07;;;;;;;7.97;4.00;;;;;;;;;;2058424;28;20197;-63
2022/02/24 01:23:07;;;;;;;7.63;4.40;;;;;;;;;;2058244;28;20224;-64
2022/02/24 01:24:07;;;;;;;8.95;4.38;;;;;;;;;;2057114;28;20621;-64
2022/02/24 01:25:08;;;;;;;5.88;4.35;;;;;;;;;;2057831;28;20174;-64
2022/02/24 01:26:09;;;;;;;7.78;4.60;;;;;;;;;;2057746;28;20245;-63
2022/02/24 01:27:09;;;;;;;10.38;4.22;;;;;;;;;;2057730;28;20229;-60
2022/02/24 01:28:10;;;;;;;7.13;4.70;;;;;;;;;;2057990;28;20576;-63
2022/02/24 01:29:10;;;;;;;7.57;4.75;;;;;;;;;;2058569;28;20178;-65
2022/02/24 01:30:10;;;;;;;7.13;4.05;;;;;;;;;;2058426;28;20679;-64
2022/02/24 01:31:11;;;;;;;8.65;4.80;;;;;;;;;;2059863;28;20175;-64
2022/02/24 01:32:11;;;;;;;8.93;4.30;;;;;;;;;;2061119;28;20206;-65
2022/02/24 01:33:11;;;;;;;10.30;4.88;;;;;;;;;;2058833;28;20190;-64
2022/02/24 01:34:11;;;;;;;6.60;4.18;;;;;;;;;;2058296;28;20166;-62
2022/02/24 01:35:12;;;;;;;6.55;4.43;;;;;;;;;;2058391;28;20177;-64
2022/02/24 01:36:12;;;;;;;9.48;4.97;;;;;;;;;;2058296;28;20635;-64
2022/02/24 01:37:12;;;;;;;11.63;4.60;;;;;;;;;;2058217;28;20171;-64
2022/02/24 01:38:13;;;;;;;8.45;4.63;;;;;;;;;;2057624;28;20730;-63
2022/02/24 01:39:13;;;;;;;6.47;4.40;;;;;;;;;;2057524;28;20182;-64
2022/02/24 01:40:15;;;;;;;9.95;5.30;;;;;;;;;;2058312;28;20541;-65
2022/02/24 01:41:15;;;;;;;7.20;4.57;;;;;;;;;;2057977;28;20531;-63
2022/02/24 01:42:15;;;;;;;9.52;4.68;;;;;;;;;;2058126;28;20197;-63
2022/02/24 01:43:15;;;;;;;8.88;5.10;;;;;;;;;;2057950;28;20643;-65
2022/02/24 01:44:15;;;;;;;7.13;4.38;;;;;;;;;;2057421;28;20677;-63
2022/02/24 01:45:16;;;;;;;6.72;4.55;;;;;;;;;;2057615;28;20214;-65
2022/02/24 01:46:16;;;;;;;8.52;4.50;;;;;;;;;;2057285;28;20178;-62
2022/02/24 01:47:16;;;;;;;7.97;4.40;;;;;;;;;;2058185;28;20174;-63
2022/02/24 01:48:17;;;;;;;6.10;4.90;;;;;;;;;;2057545;28;20663;-67
2022/02/24 01:49:20;;;;;;;9.65;4.45;;;;;;;;;;2058124;28;20253;-63
2022/02/24 01:50:20;;;;;;;9.80;5.10;;;;;;;;;;2057543;28;20175;-63
2022/02/24 01:51:22;;;;;;;9.05;4.35;;;;;;;;;;2058029;28;20266;-64
2022/02/24 01:52:22;;;;;;;8.88;4.93;;;;;;;;;;2058142;28;20194;-64
2022/02/24 01:53:22;;;;;;;11.55;4.55;;;;;;;;;;2057872;28;20206;-64
2022/02/24 01:54:23;;;;;;;9.40;4.20;;;;;;;;;;2057645;28;20637;-64
2022/02/24 01:55:23;;;;;;;8.02;3.97;;;;;;;;;;2058192;28;20186;-62
2022/02/24 01:56:23;;;;;;;6.90;3.88;;;;;;;;;;2057396;28;20175;-63
2022/02/24 01:57:23;;;;;;;12.45;4.47;;;;;;;;;;2057665;28;20166;-63
2022/02/24 01:58:24;;;;;;;9.93;4.15;;;;;;;;;;2057998;28;20655;-62
2022/02/24 01:59:24;;;;;;;7.00;4.68;;;;;;;;;;2058156;28;20197;-62
2022/02/24 02:00:24;;;;;;;9.68;4.60;;;;;;;;;;2057989;28;20290;-63
2022/02/24 02:01:25;;;;;;;12.23;4.88;;;;;;;;;;2058511;28;20225;-65
2022/02/24 02:02:25;;;;;;;6.88;4.13;;;;;;;;;;2058425;28;20281;-63
2022/02/24 02:03:25;;;;;;;6.82;4.53;;;;;;;;;;2058299;28;20257;-58
2022/02/24 02:04:25;;;;;;;6.22;4.03;;;;;;;;;;2057602;28;20178;-62
2022/02/24 02:05:28;;;;;;;7.68;4.10;;;;;;;;;;2058484;28;20178;-64
2022/02/24 02:06:28;;;;;;;9.10;4.63;;;;;;;;;;2058413;28;20182;-63
2022/02/24 02:07:29;;;;;;;9.02;4.45;;;;;;;;;;2058582;28;20261;-61
2022/02/24 02:08:30;;;;;;;10.45;4.68;;;;;;;;;;2058342;28;20218;-63
2022/02/24 02:09:31;;;;;;;8.82;4.20;;;;;;;;;;2058301;28;20213;-63
2022/02/24 02:10:32;;;;;;;8.52;4.57;;;;;;;;;;2058267;28;20214;-57
2022/02/24 02:11:32;;;;;;;9.23;4.10;;;;;;;;;;2057880;28;20249;-63
2022/02/24 02:12:43;;;;;;;8.13;4.40;;;;;;;;;;2057421;28;20210;-64
2022/02/24 02:13:43;;;;;;;7.95;4.15;;;;;;;;;;2057946;28;20171;-61
2022/02/24 02:14:44;;;;;;;8.02;4.70;;;;;;;;;;2057095;28;20170;-62
2022/02/24 02:15:44;;;;;;;6.20;4.25;;;;;;;;;;2058432;28;20205;-63
2022/02/24 02:16:45;;;;;;;10.00;4.75;;;;;;;;;;2058178;28;20178;-62
2022/02/24 02:17:46;;;;;;;7.82;4.47;;;;;;;;;;2058200;28;20213;-62
2022/02/24 02:18:46;;;;;;;7.07;4.22;;;;;;;;;;2056582;28;20175;-63
2022/02/24 02:19:46;;;;;;;6.55;4.45;;;;;;;;;;2058018;28;20182;-64
2022/02/24 02:20:46;;;;;;;5.82;4.35;;;;;;;;;;2057711;28;20709;-57
2022/02/24 02:21:47;;;;;;;12.10;4.95;;;;;;;;;;2057866;28;20174;-62
2022/02/24 02:22:49;;;;;;;5.60;4.35;;;;;;;;;;2057832;28;20189;-63
2022/02/24 02:23:49;;;;;;;5.50;4.05;;;;;;;;;;2057991;28;20252;-58
2022/02/24 02:25:07;;;;;;;6.60;3.45;;;;;;;;;;2055851;28;20651;-63
2022/02/24 02:26:08;;;;;;;4.85;4.20;;;;;;;;;;2056199;28;20554;-64
2022/02/24 02:27:08;;;;;;;7.13;4.25;;;;;;;;;;2052642;28;20182;-61
2022/02/24 02:28:08;;;;;;;6.80;4.22;;;;;;;;;;2055166;28;20667;-62
2022/02/24 02:29:11;;;;;;;5.85;4.28;;;;;;;;;;2057147;28;20273;-63
2022/02/24 02:30:11;;;;;;;10.48;5.30;;;;;;;;;;2057636;28;20178;-62
2022/02/24 02:31:11;;;;;;;10.40;4.68;;;;;;;;;;2057394;28;20178;-64
2022/02/24 02:32:12;;;;;;;5.32;4.35;;;;;;;;;;2057889;28;20222;-65
2022/02/24 02:33:12;;;;;;;7.25;3.95;;;;;;;;;;2057182;28;20205;-64
2022/02/24 02:34:13;;;;;;;8.63;4.50;;;;;;;;;;2057039;28;20291;-63
2022/02/24 02:35:14;;;;;;;10.27;4.75;;;;;;;;;;2052341;28;20169;-63
2022/02/24 02:36:14;;;;;;;10.45;4.72;;;;;;;;;;2055093;28;20174;-62
2022/02/24 02:37:14;;;;;;;12.30;4.95;;;;;;;;;;2052419;28;20176;-64
2022/02/24 02:38:15;;;;;;;7.68;4.22;;;;;;;;;;2054948;28;20167;-65
2022/02/24 02:39:15;;;;;;;9.65;4.03;;;;;;;;;;2057010;28;20249;-60
2022/02/24 02:40:16;;;;;;;5.57;4.03;;;;;;;;;;2056681;28;20186;-64
2022/02/24 02:41:16;;;;;;;9.60;4.43;;;;;;;;;;2056933;28;20241;-64
2022/02/24 02:42:16;;;;;;;9.35;4.47;;;;;;;;;;2058131;28;20678;-63
2022/02/24 02:43:16;;;;;;;7.25;4.30;;;;;;;;;;2058201;28;20174;-63
2022/02/24 02:44:16;;;;;;;8.20;4.20;;;;;;;;;;2057416;28;20266;-62
2022/02/24 02:45:17;;;;;;;6.60;3.78;;;;;;;;;;2057994;28;20182;-61
2022/02/24 02:46:17;;;;;;;9.45;4.25;;;;;;;;;;2057965;28;20181;-60
2022/02/24 02:47:18;;;;;;;6.95;4.05;;;;;;;;;;2057841;28;20232;-64
2022/02/24 02:48:18;;;;;;;8.52;4.28;;;;;;;;;;2057275;28;20550;-62
2022/02/24 02:49:18;;;;;;;5.13;4.60;;;;;;;;;;2057372;28;20175;-65
2022/02/24 02:50:18;;;;;;;10.57;4.60;;;;;;;;;;2057335;28;20198;-62
2022/02/24 02:51:19;;;;;;;6.55;3.85;;;;;;;;;;2057747;28;20194;-64
2022/02/24 02:52:22;;;;;;;9.52;4.07;;;;;;;;;;2057375;28;20212;-63
2022/02/24 02:53:22;;;;;;;10.90;4.00;;;;;;;;;;2056667;28;20253;-63
2022/02/24 02:54:22;;;;;;;6.10;4.50;;;;;;;;;;2057323;28;20166;-63
2022/02/24 02:55:23;;;;;;;6.20;4.43;;;;;;;;;;2056492;28;20182;-61
2022/02/24 02:56:23;;;;;;;6.45;4.18;;;;;;;;;;2056706;28;20233;-61
2022/02/24 02:57:23;;;;;;;7.90;4.00;;;;;;;;;;2057701;28;20186;-62
2022/02/24 02:58:23;;;;;;;7.45;5.05;;;;;;;;;;2057749;28;20177;-59
2022/02/24 02:59:24;;;;;;;6.72;3.70;;;;;;;;;;2056761;28;20217;-63
2022/02/24 03:00:24;;;;;;;5.85;3.95;;;;;;;;;;2056878;28;20170;-59
2022/02/24 03:01:24;;;;;;;10.32;4.30;;;;;;;;;;2057349;28;20185;-64
2022/02/24 03:02:24;;;;;;;8.10;4.03;;;;;;;;;;2057815;28;20201;-63
2022/02/24 03:03:25;;;;;;;12.07;4.32;;;;;;;;;;2057046;28;20175;-62
2022/02/24 03:04:25;;;;;;;8.30;4.47;;;;;;;;;;2050488;28;20690;-63
2022/02/24 03:05:25;;;;;;;9.95;4.55;;;;;;;;;;2046998;29;20191;-64
2022/02/24 03:06:26;;;;;;;9.40;4.60;;;;;;;;;;2042086;29;20188;-64
2022/02/24 03:07:26;;;;;;;7.32;4.47;;;;;;;;;;2049410;29;20167;-65
2022/02/24 03:08:26;;;;;;;5.75;4.15;;;;;;;;;;2048858;29;20520;-64
2022/02/24 03:09:26;;;;;;;11.23;4.65;;;;;;;;;;2051616;28;20552;-64
2022/02/24 03:10:27;;;;;;;10.13;4.72;;;;;;;;;;2057669;28;20194;-64
2022/02/24 03:11:28;;;;;;;7.00;3.97;;;;;;;;;;2057449;28;20170;-64
2022/02/24 03:12:35;;;;;;;7.63;4.43;;;;;;;;;;2057554;28;20206;-60
2022/02/24 03:13:35;;;;;;;7.00;4.22;;;;;;;;;;2057392;28;20265;-63
2022/02/24 03:14:38;;;;;;;9.07;4.68;;;;;;;;;;2052085;28;20640;-64
2022/02/24 03:15:38;;;;;;;7.40;4.72;;;;;;;;;;2049678;28;20159;-63
2022/02/24 03:16:38;;;;;;;9.73;5.20;;;;;;;;;;2048994;28;20390;-64
2022/02/24 03:17:42;;;;;;;9.15;4.07;;;;;;;;;;2040254;29;20179;-63
2022/02/24 03:18:42;;;;;;;9.32;4.63;;;;;;;;;;2048936;29;20171;-64
2022/02/24 03:19:43;;;;;;;9.07;4.03;;;;;;;;;;2053750;28;20552;-63
2022/02/24 03:20:44;;;;;;;11.15;4.50;;;;;;;;;;2057361;28;20253;-63
2022/02/24 03:21:44;;;;;;;9.18;4.10;;;;;;;;;;2057072;28;20264;-64
2022/02/24 03:22:44;;;;;;;10.93;4.32;;;;;;;;;;2056842;28;20536;-61
2022/02/24 03:23:45;;;;;;;9.68;4.45;;;;;;;;;;2055968;28;20229;-64
2022/02/24 03:24:46;;;;;;;8.38;3.72;;;;;;;;;;2052976;28;20190;-64
2022/02/24 03:25:46;;;;;;;9.85;4.18;;;;;;;;;;2055816;28;20177;-63
2022/02/24 03:26:46;;;;;;;8.55;4.47;;;;;;;;;;2052427;28;20346;-65
2022/02/24 03:27:47;;;;;;;12.52;5.25;;;;;;;;;;2049444;28;20170;-63
2022/02/24 03:28:48;;;;;;;8.18;4.63;;;;;;;;;;2049490;28;20163;-63
2022/02/24 03:29:48;;;;;;;13.85;4.55;;;;;;;;;;2054290;28;20182;-63
2022/02/24 03:30:48;;;;;;;6.45;3.92;;;;;;;;;;2057438;28;20647;-62
2022/02/24 03:31:49;;;;;;;8.88;4.30;;;;;;;;;;2056540;28;20170;-64
2022/02/24 03:32:49;;;;;;;7.10;4.25;;;;;;;;;;2057385;28;20793;-62
2022/02/24 03:33:50;;;;;;;10.52;4.40;;;;;;;;;;2057162;28;20229;-63
2022/02/24 03:34:50;;;;;;;10.68;5.22;;;;;;;;;;2055268;28;20190;-65
2022/02/24 03:35:51;;;;;;;11.43;4.78;;;;;;;;;;2053662;28;20178;-63
2022/02/24 03:36:51;;;;;;;7.35;4.22;;;;;;;;;;2050156;28;20179;-63
2022/02/24 03:37:51;;;;;;;6.00;4.03;;;;;;;;;;2055061;28;20170;-63
2022/02/24 03:38:51;;;;;;;8.85;4.40;;;;;;;;;;2049476;28;20171;-62
2022/02/24 03:39:52;;;;;;;8.88;4.78;;;;;;;;;;2053605;28;20174;-63
2022/02/24 03:40:52;;;;;;;8.48;4.47;;;;;;;;;;2057242;28;20162;-62
2022/02/24 03:41:53;;;;;;;10.75;5.00;;;;;;;;;;2054552;28;20185;-63
2022/02/24 03:42:53;;;;;;;6.90;4.18;;;;;;;;;;2051766;28;20175;-63
2022/02/24 03:43:53;;;;;;;7.85;3.92;;;;;;;;;;2057115;28;20185;-64
2022/02/24 03:44:54;;;;;;;7.63;4.63;;;;;;;;;;2055415;28;20578;-65
2022/02/24 03:45:54;;;;;;;7.45;4.65;;;;;;;;;;2056621;28;20182;-64
2022/02/24 03:46:54;;;;;;;9.27;4.57;;;;;;;;;;2056649;28;20209;-63
2022/02/24 03:47:54;;;;;;;7.97;4.75;;;;;;;;;;2055848;28;20257;-65
2022/02/24 03:48:55;;;;;;;10.02;4.95;;;;;;;;;;2048471;29;20191;-63
2022/02/24 03:49:55;;;;;;;8.30;4.50;;;;;;;;;;2055999;28;20182;-64
2022/02/24 03:50:56;;;;;;;9.13;5.10;;;;;;;;;;2056648;28;20655;-63
2022/02/24 03:51:56;;;;;;;8.35;3.90;;;;;;;;;;2054191;28;20203;-64
2022/02/24 03:52:56;;;;;;;8.65;4.38;;;;;;;;;;2051447;28;20194;-63
2022/02/24 03:53:57;;;;;;;8.95;4.30;;;;;;;;;;2053737;28;20198;-64
2022/02/24 03:54:58;;;;;;;5.03;4.38;;;;;;;;;;2048311;29;20608;-64
2022/02/24 03:55:58;;;;;;;7.43;5.00;;;;;;;;;;2052761;28;20662;-63
2022/02/24 03:56:59;;;;;;;7.22;4.47;;;;;;;;;;2057073;28;20166;-63
2022/02/24 03:57:59;;;;;;;7.50;5.00;;;;;;;;;;2056494;28;20174;-64
2022/02/24 03:58:59;;;;;;;9.70;4.43;;;;;;;;;;2056652;28;20543;-64
2022/02/24 04:00:00;;;;;;;9.75;4.70;;;;;;;;;;2057050;28;20657;-65
2022/02/24 04:01:00;;;;;;;10.20;4.93;;;;;;;;;;2057112;28;20201;-64
2022/02/24 04:02:00;;;;;;;10.60;4.78;;;;;;;;;;2056987;28;20663;-68
2022/02/24 04:03:00;;;;;;;9.32;5.22;;;;;;;;;;2057213;28;20208;-64
2022/02/24 04:04:01;;;;;;;11.35;4.80;;;;;;;;;;2056075;28;20257;-64
2022/02/24 04:05:01;;;;;;;9.30;4.57;;;;;;;;;;2056376;28;20220;-63
2022/02/24 04:06:01;;;;;;;9.20;4.85;;;;;;;;;;2057787;28;20194;-64
2022/02/24 04:07:02;;;;;;;8.88;4.95;;;;;;;;;;2053910;28;20170;-65
2022/02/24 04:08:03;;;;;;;10.45;5.60;;;;;;;;;;2048472;29;20183;-65
2022/02/24 04:09:03;;;;;;;10.30;5.20;;;;;;;;;;2048582;29;20273;-65
2022/02/24 04:10:03;;;;;;;9.60;4.80;;;;;;;;;;2056849;28;20170;-63
2022/02/24 04:11:04;;;;;;;8.68;5.15;;;;;;;;;;2057115;28;20174;-66
2022/02/24 04:12:05;;;;;;;9.77;5.18;;;;;;;;;;2056434;28;20237;-61
2022/02/24 04:13:05;;;;;;;8.80;4.50;;;;;;;;;;2056645;28;20233;-66
2022/02/24 04:14:06;;;;;;;7.28;4.45;;;;;;;;;;2056623;28;20170;-63
2022/02/24 04:15:06;;;;;;;7.25;5.20;;;;;;;;;;2057264;28;20166;-63
2022/02/24 04:16:06;;;;;;;9.35;4.88;;;;;;;;;;2054521;28;20631;-65
2022/02/24 04:17:07;;;;;;;8.75;5.22;;;;;;;;;;2054778;28;20548;-62
2022/02/24 04:18:07;;;;;;;8.77;5.03;;;;;;;;;;2053349;28;20619;-64
2022/02/24 04:19:08;;;;;;;7.68;5.53;;;;;;;;;;2057131;28;20171;-63
2022/02/24 04:20:08;;;;;;;9.60;5.45;;;;;;;;;;2052922;28;20179;-63
2022/02/24 04:21:09;;;;;;;7.75;5.63;;;;;;;;;;2054213;28;20820;-61
2022/02/24 04:22:09;;;;;;;9.55;4.68;;;;;;;;;;2052386;28;20637;-63
2022/02/24 04:23:09;;;;;;;8.18;5.20;;;;;;;;;;2053538;28;20204;-64
2022/02/24 04:24:10;;;;;;;9.65;4.88;;;;;;;;;;2056698;28;20616;-64
2022/02/24 04:25:10;;;;;;;7.68;4.90;;;;;;;;;;2055870;28;20662;-64
2022/02/24 04:26:10;;;;;;;12.20;4.90;;;;;;;;;;2047901;29;20238;-64
2022/02/24 04:27:11;;;;;;;7.18;4.60;;;;;;;;;;2055915;28;20918;-64
2022/02/24 04:28:11;;;;;;;11.05;5.00;;;;;;;;;;2056531;28;20218;-65
2022/02/24 04:29:11;;;;;;;8.45;4.85;;;;;;;;;;2056955;28;20229;-64
2022/02/24 04:30:12;;;;;;;9.98;5.05;;;;;;;;;;2049214;28;20179;-64
2022/02/24 04:31:12;;;;;;;10.63;4.70;;;;;;;;;;2049370;28;20643;-63
2022/02/24 04:32:12;;;;;;;7.47;5.00;;;;;;;;;;2056795;28;20288;-63
2022/02/24 04:33:12;;;;;;;8.18;4.55;;;;;;;;;;2057548;28;20190;-65
2022/02/24 04:34:13;;;;;;;8.73;4.53;;;;;;;;;;2056905;28;20173;-63
2022/02/24 04:35:14;;;;;;;9.63;5.18;;;;;;;;;;2057572;28;20186;-64
2022/02/24 04:36:14;;;;;;;9.52;5.30;;;;;;;;;;2057362;28;20542;-65
2022/02/24 04:37:14;;;;;;;11.15;4.80;;;;;;;;;;2057797;28;20249;-66
2022/02/24 04:38:14;;;;;;;9.13;4.93;;;;;;;;;;2057334;28;20190;-65
2022/02/24 04:39:15;;;;;;;9.40;4.93;;;;;;;;;;2057261;28;20175;-63
2022/02/24 04:40:15;;;;;;;6.97;4.75;;;;;;;;;;2056701;28;20186;-63
2022/02/24 04:41:16;;;;;;;8.45;4.68;;;;;;;;;;2056728;28;20166;-63
2022/02/24 04:42:16;;;;;;;7.40;4.38;;;;;;;;;;2056809;28;20698;-63
2022/02/24 04:43:16;;;;;;;12.40;4.78;;;;;;;;;;2057650;28;20665;-64
2022/02/24 04:44:17;;;;;;;8.23;4.95;;;;;;;;;;2056111;28;20170;-64
2022/02/24 04:45:17;;;;;;;7.32;4.38;;;;;;;;;;2056353;28;20209;-65
2022/02/24 04:46:17;;;;;;;10.32;4.55;;;;;;;;;;2057071;28;20731;-64
2022/02/24 04:47:17;;;;;;;9.68;4.82;;;;;;;;;;2054232;28;20670;-64
2022/02/24 04:48:20;;;;;;;8.70;4.88;;;;;;;;;;2056268;28;20358;-64
2022/02/24 04:49:21;;;;;;;10.18;4.75;;;;;;;;;;2051389;28;20183;-64
2022/02/24 04:50:21;;;;;;;6.75;4.40;;;;;;;;;;2050572;28;20179;-59
2022/02/24 04:51:21;;;;;;;7.25;4.10;;;;;;;;;;2050187;28;20195;-63
2022/02/24 04:52:21;;;;;;;11.77;4.70;;;;;;;;;;2049590;28;20203;-61
2022/02/24 04:53:21;;;;;;;8.40;4.65;;;;;;;;;;2056670;28;20191;-64
2022/02/24 04:54:22;;;;;;;6.30;4.57;;;;;;;;;;2050265;28;20206;-62
2022/02/24 04:55:22;;;;;;;7.10;4.18;;;;;;;;;;2049695;28;20594;-64
2022/02/24 04:56:22;;;;;;;7.93;4.40;;;;;;;;;;2048256;28;20171;-64
2022/02/24 04:57:23;;;;;;;9.50;4.45;;;;;;;;;;2054871;28;20206;-62
2022/02/24 04:58:23;;;;;;;7.55;4.20;;;;;;;;;;2056974;28;20539;-65
2022/02/24 04:59:23;;;;;;;9.25;4.30;;;;;;;;;;2056635;28;20159;-63
2022/02/24 05:00:24;;;;;;;6.95;4.68;;;;;;;;;;2049167;28;20167;-63
2022/02/24 05:01:24;;;;;;;8.02;4.32;;;;;;;;;;2049069;28;20507;-62
2022/02/24 05:02:24;;;;;;;10.20;4.20;;;;;;;;;;2056054;28;20191;-63
2022/02/24 05:03:25;;;;;;;10.07;4.57;;;;;;;;;;2056447;28;20249;-64
2022/02/24 05:04:25;;;;;;;8.23;4.72;;;;;;;;;;2055817;28;20237;-63
2022/02/24 05:05:25;;;;;;;8.27;4.00;;;;;;;;;;2056100;28;20179;-64
2022/02/24 05:06:26;;;;;;;8.50;4.15;;;;;;;;;;2056465;28;20265;-63
2022/02/24 05:07:26;;;;;;;8.38;4.38;;;;;;;;;;2056682;28;20177;-63
2022/02/24 05:08:26;;;;;;;8.25;4.32;;;;;;;;;;2056277;28;20178;-61
2022/02/24 05:09:27;;;;;;;9.68;4.65;;;;;;;;;;2055935;28;20589;-64
2022/02/24 05:10:27;;;;;;;9.40;4.10;;;;;;;;;;2056673;28;20174;-64
2022/02/24 05:11:27;;;;;;;8.23;4.40;;;;;;;;;;2057436;28;20266;-63
2022/02/24 05:12:28;;;;;;;10.48;4.45;;;;;;;;;;2056461;28;20706;-62
2022/02/24 05:13:28;;;;;;;10.43;4.18;;;;;;;;;;2056041;28;20249;-63
2022/02/24 05:14:28;;;;;;;11.70;4.10;;;;;;;;;;2055771;28;20178;-64
2022/02/24 05:15:28;;;;;;;7.88;4.45;;;;;;;;;;2056015;28;20661;-62
2022/02/24 05:16:29;;;;;;;10.10;4.28;;;;;;;;;;2056289;28;20614;-65
2022/02/24 05:17:29;;;;;;;8.50;3.75;;;;;;;;;;2056869;28;20231;-64
2022/02/24 05:18:29;;;;;;;9.73;4.28;;;;;;;;;;2056986;28;20655;-64
2022/02/24 05:19:29;;;;;;;7.28;3.97;;;;;;;;;;2057617;28;20179;-63
2022/02/24 05:20:30;;;;;;;9.20;4.50;;;;;;;;;;2057265;28;20213;-63
2022/02/24 05:21:30;;;;;;;9.25;4.43;;;;;;;;;;2056627;28;20190;-64
2022/02/24 05:22:30;;;;;;;11.77;5.18;;;;;;;;;;2056706;28;20190;-64
2022/02/24 05:23:31;;;;;;;8.95;3.90;;;;;;;;;;2058056;28;20221;-64
2022/02/24 05:24:31;;;;;;;6.18;4.45;;;;;;;;;;2054061;28;20273;-64
2022/02/24 05:25:35;;;;;;;8.25;4.55;;;;;;;;;;2057524;28;20669;-64
2022/02/24 05:26:37;;;;;;;9.82;4.35;;;;;;;;;;2053313;28;20269;-61
2022/02/24 05:27:37;;;;;;;7.80;3.78;;;;;;;;;;2049712;28;20418;-63
2022/02/24 05:28:38;;;;;;;8.18;3.92;;;;;;;;;;2056824;28;20178;-62
2022/02/24 05:29:38;;;;;;;7.85;4.28;;;;;;;;;;2050706;28;20235;-65
2022/02/24 05:30:39;;;;;;;8.82;4.43;;;;;;;;;;2056675;28;20179;-63
2022/02/24 05:31:39;;;;;;;8.43;4.47;;;;;;;;;;2050532;28;20234;-63
2022/02/24 05:32:39;;;;;;;9.40;4.47;;;;;;;;;;2074580;23;20612;-58
2022/02/24 05:33:40;;;;;;;9.60;4.63;;;;;;;;;;2053625;28;20269;-54
2022/02/24 05:34:40;;;;;;;11.32;4.60;;;;;;;;;;2050448;28;20187;-53
2022/02/24 05:35:41;;;;;;;10.90;4.38;;;;;;;;;;2056401;28;20198;-57
2022/02/24 05:36:43;;;;;;;9.45;4.75;;;;;;;;;;2056751;28;20179;-57
2022/02/24 05:37:43;;;;;;;7.60;4.45;;;;;;;;;;2057593;28;20241;-58
2022/02/24 05:38:44;;;;;;;6.67;4.80;;;;;;;;;;2056566;28;20174;-55
2022/02/24 05:39:44;;;;;;;8.45;4.65;;;;;;;;;;2052226;28;20186;-54
2022/02/24 05:40:44;;;;;;;8.38;4.40;;;;;;;;;;2056144;28;20206;-57
2022/02/24 05:41:44;;;;;;;7.35;4.75;;;;;;;;;;2050801;28;20203;-58
2022/02/24 05:42:45;;;;;;;8.90;4.40;;;;;;;;;;2061890;28;20284;-54
2022/02/24 05:43:47;;;;;;;7.72;4.88;;;;;;;;;;2064546;28;20184;-57
2022/02/24 05:44:47;;;;;;;7.18;4.38;;;;;;;;;;2064813;28;20267;-54
2022/02/24 05:45:47;;;;;;;8.20;4.45;;;;;;;;;;2064582;28;20173;-56
2022/02/24 05:46:47;;;;;;;9.30;4.68;;;;;;;;;;2065083;28;20548;-57
2022/02/24 05:47:48;;;;;;;5.93;4.25;;;;;;;;;;2063689;28;20219;-57
2022/02/24 05:48:48;;;;;;;6.70;4.63;;;;;;;;;;2060898;28;20176;-56
2022/02/24 05:49:48;;;;;;;9.98;4.15;;;;;;;;;;2062644;28;20665;-54
2022/02/24 05:50:49;;;;;;;9.18;4.50;;;;;;;;;;2063427;28;20699;-57
2022/02/24 05:51:49;;;;;;;9.32;4.35;;;;;;;;;;2058459;28;20217;-56
2022/02/24 05:52:49;;;;;;;10.98;4.45;;;;;;;;;;2060322;28;20751;-55
2022/02/24 05:53:50;;;;;;;8.70;4.35;;;;;;;;;;2063592;28;20166;-57
2022/02/24 05:54:51;;;;;;;8.55;4.95;;;;;;;;;;2061628;28;20198;-55
2022/02/24 05:55:51;;;;;;;7.45;5.43;;;;;;;;;;2064491;28;20166;-58
2022/02/24 05:56:51;;;;;;;10.13;5.03;;;;;;;;;;2065642;28;20260;-54
2022/02/24 05:57:51;;;;;;;9.05;4.38;;;;;;;;;;2063115;28;20178;-58
2022/02/24 05:58:52;;;;;;;8.52;4.30;;;;;;;;;;2059423;28;20872;-55
2022/02/24 05:59:52;;;;;;;10.13;5.43;;;;;;;;;;2065983;28;20650;-58
2022/02/24 06:00:52;;;;;;;8.25;5.03;;;;;;;;;;2059090;28;20206;-58
2022/02/24 06:01:52;;;;;;;8.13;4.82;;;;;;;;;;2063166;28;20189;-58